createdAt,value
2019-04-29T00:01:59.637Z,15.93
2019-04-29T00:04:29.258Z,16.17
2019-04-29T00:06:59.276Z,17.50
2019-04-29T00:09:30.972Z,15.50
2019-04-29T00:12:00.444Z,16.43
2019-04-29T00:14:31.010Z,17.53
2019-04-29T00:17:05.267Z,14.47
2019-04-29T00:19:51.468Z,14.70
2019-04-29T00:22:21.032Z,16.13
2019-04-29T00:24:50.598Z,18.93
2019-04-29T00:27:20.306Z,18.60
2019-04-29T00:29:50.197Z,19.13
2019-04-29T00:32:19.769Z,18.10
2019-04-29T00:34:49.316Z,16.40
2019-04-29T00:37:28.758Z,16.27
2019-04-29T00:39:59.951Z,18.27
2019-04-29T00:42:38.410Z,16.17
2019-04-29T00:45:09.156Z,13.50
2019-04-29T00:47:38.710Z,15.03
2019-04-29T00:50:08.876Z,14.93
2019-04-29T00:52:38.426Z,14.60
2019-04-29T00:55:10.013Z,13.67
2019-04-29T00:57:39.569Z,10.33
2019-04-29T01:00:12.682Z,13.10
2019-04-29T01:02:42.413Z,11.17
2019-04-29T01:05:14.375Z,14.10
2019-04-29T01:07:43.999Z,11.20
2019-04-29T01:10:13.983Z,12.17
2019-04-29T01:12:43.702Z,11.40
2019-04-29T01:15:13.662Z,7.90
2019-04-29T01:17:43.371Z,11.50
2019-04-29T01:20:13.254Z,10.10
2019-04-29T01:22:43.710Z,9.07
2019-04-29T01:25:13.728Z,9.20
2019-04-29T01:27:47.870Z,8.43
2019-04-29T01:30:54.865Z,8.97
2019-04-29T01:33:24.996Z,9.30
2019-04-29T01:36:12.516Z,10.98
2019-04-29T01:38:42.227Z,10.43
2019-04-29T01:41:13.420Z,9.27
2019-04-29T01:44:00.772Z,10.13
2019-04-29T01:46:31.207Z,13.10
2019-04-29T01:49:00.794Z,12.80
2019-04-29T01:51:30.417Z,9.60
2019-04-29T01:54:00.038Z,11.30
2019-04-29T01:56:29.588Z,13.47
2019-04-29T01:58:59.343Z,11.47
2019-04-29T02:01:28.895Z,13.50
2019-04-29T02:03:58.446Z,10.77
2019-04-29T02:06:28.414Z,12.70
2019-04-29T02:08:57.985Z,12.03
2019-04-29T02:11:27.531Z,11.90
2019-04-29T02:13:57.159Z,9.33
2019-04-29T02:16:26.711Z,9.40
2019-04-29T02:18:56.265Z,9.93
2019-04-29T02:21:26.390Z,8.97
2019-04-29T02:23:57.598Z,10.80
2019-04-29T02:26:28.181Z,9.50
2019-04-29T02:28:57.742Z,7.70
2019-04-29T02:31:40.973Z,11.33
2019-04-29T02:34:10.667Z,8.97
2019-04-29T02:36:40.744Z,11.33
2019-04-29T02:39:12.217Z,8.43
2019-04-29T02:41:52.649Z,9.57
2019-04-29T02:44:22.357Z,11.77
2019-04-29T02:46:52.063Z,10.10
2019-04-29T02:49:21.774Z,12.40
2019-04-29T02:51:54.284Z,9.43
2019-04-29T02:54:25.497Z,9.30
2019-04-29T02:57:05.370Z,12.70
2019-04-29T02:59:40.073Z,10.67
2019-04-29T03:02:13.667Z,10.50
2019-04-29T03:05:01.739Z,11.93
2019-04-29T03:07:31.281Z,11.63
2019-04-29T03:10:01.670Z,12.43
2019-04-29T03:12:31.280Z,10.33
2019-04-29T03:15:01.682Z,11.20
2019-04-29T03:17:31.868Z,11.03
2019-04-29T03:20:21.575Z,12.83
2019-04-29T03:22:53.640Z,12.27
2019-04-29T03:25:23.177Z,10.17
2019-04-29T03:27:53.344Z,13.07
2019-04-29T03:30:22.956Z,12.37
2019-04-29T03:32:52.507Z,12.10
2019-04-29T03:35:22.128Z,13.23
2019-04-29T03:37:51.765Z,10.63
2019-04-29T03:40:21.320Z,9.53
2019-04-29T03:42:51.389Z,13.77
2019-04-29T03:45:21.367Z,10.80
2019-04-29T03:47:51.404Z,10.87
2019-04-29T03:50:20.965Z,10.03
2019-04-29T03:52:50.708Z,8.40
2019-04-29T03:55:37.680Z,10.27
2019-04-29T03:57:51.686Z,11.43
2019-04-29T04:00:44.450Z,9.53
2019-04-29T04:03:18.966Z,11.73
2019-04-29T04:05:50.153Z,10.30
2019-04-29T04:08:30.203Z,10.87
2019-04-29T04:10:59.817Z,10.63
2019-04-29T04:13:29.417Z,11.73
2019-04-29T04:15:58.938Z,13.33
2019-04-29T04:18:30.322Z,10.33
2019-04-29T04:21:00.234Z,11.17
2019-04-29T04:23:29.770Z,13.40
2019-04-29T04:25:59.335Z,11.57
2019-04-29T04:28:29.134Z,10.33
2019-04-29T04:30:58.688Z,10.50
2019-04-29T04:33:28.244Z,11.20
2019-04-29T04:35:57.870Z,12.00
2019-04-29T04:38:27.784Z,11.47
2019-04-29T04:41:04.637Z,11.50
2019-04-29T04:43:35.128Z,10.37
2019-04-29T04:46:04.657Z,10.00
2019-04-29T04:48:34.816Z,11.20
2019-04-29T04:51:04.505Z,10.23
2019-04-29T04:53:34.220Z,14.37
2019-04-29T04:56:04.112Z,19.07
2019-04-29T04:58:34.323Z,15.03
2019-04-29T05:01:03.891Z,11.10
2019-04-29T05:03:33.432Z,11.37
2019-04-29T05:06:03.578Z,12.00
2019-04-29T05:08:33.119Z,10.67
2019-04-29T05:11:02.855Z,9.93
2019-04-29T05:13:32.936Z,12.97
2019-04-29T05:16:02.518Z,10.50
2019-04-29T05:18:32.330Z,13.00
2019-04-29T05:21:01.881Z,27.37
2019-04-29T05:23:31.439Z,16.27
2019-04-29T05:26:02.289Z,13.20
2019-04-29T05:28:31.841Z,10.90
2019-04-29T05:31:01.393Z,12.57
2019-04-29T05:33:32.213Z,17.03
2019-04-29T05:36:11.904Z,11.10
2019-04-29T05:38:43.226Z,12.60
2019-04-29T05:41:12.831Z,13.10
2019-04-29T05:43:42.378Z,11.47
2019-04-29T05:46:17.398Z,15.43
2019-04-29T05:48:45.046Z,27.50
2019-04-29T05:51:32.295Z,27.73
2019-04-29T05:54:06.219Z,12.67
2019-04-29T05:56:35.769Z,14.37
2019-04-29T05:59:08.554Z,12.77
2019-04-29T06:01:37.273Z,14.17
2019-04-29T06:04:07.125Z,12.97
2019-04-29T06:06:36.684Z,14.27
2019-04-29T06:09:11.768Z,15.60
2019-04-29T06:11:40.066Z,14.20
2019-04-29T06:14:09.696Z,14.37
2019-04-29T06:16:39.649Z,14.87
2019-04-29T06:19:09.204Z,14.43
2019-04-29T06:21:38.937Z,17.17
2019-04-29T06:24:08.486Z,14.40
2019-04-29T06:26:38.044Z,14.07
2019-04-29T06:29:08.042Z,13.63
2019-04-29T06:31:37.583Z,13.10
2019-04-29T06:34:07.216Z,17.07
2019-04-29T06:36:36.893Z,14.87
2019-04-29T06:39:08.247Z,15.33
2019-04-29T06:41:40.616Z,14.37
2019-04-29T06:44:15.982Z,13.17
2019-04-29T06:46:40.443Z,12.07
2019-04-29T06:49:10.953Z,14.33
2019-04-29T06:51:40.773Z,13.00
2019-04-29T06:54:10.330Z,14.47
2019-04-29T06:56:39.883Z,16.10
2019-04-29T06:59:12.084Z,14.67
2019-04-29T07:01:41.096Z,13.23
2019-04-29T07:04:10.656Z,13.77
2019-04-29T07:06:40.302Z,15.40
2019-04-29T07:09:09.900Z,18.10
2019-04-29T07:11:39.714Z,16.17
2019-04-29T07:14:09.330Z,15.13
2019-04-29T07:16:39.210Z,17.00
2019-04-29T07:19:08.754Z,15.13
2019-04-29T07:21:41.796Z,15.00
2019-04-29T07:24:09.974Z,15.07
2019-04-29T07:26:39.541Z,17.50
2019-04-29T07:29:09.382Z,16.93
2019-04-29T07:31:38.937Z,16.80
2019-04-29T07:34:08.698Z,15.17
2019-04-29T07:36:38.414Z,15.10
2019-04-29T07:39:09.440Z,16.13
2019-04-29T07:41:39.009Z,17.53
2019-04-29T07:44:08.850Z,18.43
2019-04-29T07:46:56.841Z,18.43
2019-04-29T07:49:23.631Z,16.37
2019-04-29T07:51:54.357Z,15.50
2019-04-29T07:54:23.924Z,16.23
2019-04-29T07:56:53.489Z,17.63
2019-04-29T07:59:23.287Z,18.67
2019-04-29T08:01:55.588Z,16.00
2019-04-29T08:04:24.283Z,15.57
2019-04-29T08:06:55.266Z,15.50
2019-04-29T08:09:25.446Z,15.60
2019-04-29T08:11:55.719Z,16.53
2019-04-29T08:14:29.143Z,16.57
2019-04-29T08:16:58.710Z,16.83
2019-04-29T08:19:29.468Z,17.47
2019-04-29T08:21:59.611Z,16.60
2019-04-29T08:24:29.795Z,15.50
2019-04-29T08:26:59.364Z,15.20
2019-04-29T08:29:30.730Z,14.57
2019-04-29T08:32:02.574Z,14.90
2019-04-29T08:34:32.115Z,17.30
2019-04-29T08:37:01.839Z,16.57
2019-04-29T08:39:31.560Z,16.10
2019-04-29T08:42:03.748Z,17.43
2019-04-29T08:44:54.714Z,14.97
2019-04-29T08:47:30.436Z,14.33
2019-04-29T08:49:58.233Z,12.73
2019-04-29T08:52:27.803Z,12.87
2019-04-29T08:54:57.465Z,12.00
2019-04-29T08:57:27.074Z,12.03
2019-04-29T08:59:56.632Z,13.17
2019-04-29T09:02:34.416Z,10.67
2019-04-29T09:04:57.621Z,12.40
2019-04-29T09:07:27.161Z,12.00
2019-04-29T09:10:01.826Z,10.10
2019-04-29T09:12:29.522Z,9.70
2019-04-29T09:14:59.466Z,9.83
2019-04-29T09:17:29.098Z,9.50
2019-04-29T09:19:59.850Z,10.13
2019-04-29T09:22:31.668Z,15.43
2019-04-29T09:25:11.783Z,14.63
2019-04-29T09:27:45.030Z,11.30
2019-04-29T09:30:17.316Z,13.83
2019-04-29T09:32:46.876Z,15.10
2019-04-29T09:35:17.191Z,12.83
2019-04-29T09:37:46.891Z,11.77
2019-04-29T09:40:27.805Z,11.17
2019-04-29T09:43:14.550Z,14.23
2019-04-29T09:45:53.916Z,12.47
2019-04-29T09:48:22.405Z,11.87
2019-04-29T09:50:52.003Z,12.03
2019-04-29T09:53:21.686Z,11.50
2019-04-29T09:55:51.400Z,23.20
2019-04-29T09:58:20.999Z,9.43
2019-04-29T10:01:13.909Z,9.93
2019-04-29T10:03:55.237Z,8.83
2019-04-29T10:06:26.728Z,9.93
2019-04-29T10:08:56.441Z,10.53
2019-04-29T10:11:26.063Z,9.37
2019-04-29T10:13:56.281Z,8.53
2019-04-29T10:16:36.059Z,8.98
2019-04-29T10:19:07.152Z,7.17
2019-04-29T10:21:37.068Z,9.45
2019-04-29T10:24:07.511Z,9.15
2019-04-29T10:26:37.297Z,8.90
2019-04-29T10:29:08.671Z,9.30
2019-04-29T10:31:38.383Z,10.03
2019-04-29T10:34:09.128Z,9.25
2019-04-29T10:36:39.601Z,6.75
2019-04-29T10:39:30.579Z,7.75
2019-04-29T10:42:04.873Z,8.20
2019-04-29T10:44:39.043Z,7.95
2019-04-29T10:47:30.726Z,10.37
2019-04-29T10:50:05.130Z,9.10
2019-04-29T10:52:38.652Z,10.10
2019-04-29T10:55:08.973Z,12.43
2019-04-29T10:57:39.047Z,8.17
2019-04-29T11:00:23.567Z,6.90
2019-04-29T11:02:53.580Z,5.95
2019-04-29T11:05:30.663Z,6.00
2019-04-29T11:08:04.374Z,6.78
2019-04-29T11:10:34.263Z,6.90
2019-04-29T11:13:04.423Z,5.45
2019-04-29T11:15:35.751Z,6.22
2019-04-29T11:18:06.724Z,6.37
2019-04-29T11:20:36.763Z,8.78
2019-04-29T11:23:16.610Z,6.45
2019-04-29T11:26:02.529Z,7.78
2019-04-29T11:28:32.380Z,7.30
2019-04-29T11:31:01.998Z,6.15
2019-04-29T11:33:35.591Z,6.23
2019-04-29T11:36:05.908Z,5.80
2019-04-29T11:38:38.335Z,7.40
2019-04-29T11:41:12.096Z,5.60
2019-04-29T11:43:39.159Z,5.87
2019-04-29T11:46:09.897Z,5.53
2019-04-29T11:48:40.475Z,5.75
2019-04-29T11:51:17.366Z,5.87
2019-04-29T11:53:47.453Z,5.77
2019-04-29T11:56:17.017Z,6.77
2019-04-29T11:58:51.018Z,6.83
2019-04-29T12:01:42.941Z,5.97
2019-04-29T12:04:33.414Z,6.07
2019-04-29T12:07:02.476Z,5.70
2019-04-29T12:09:32.418Z,5.63
2019-04-29T12:12:02.280Z,5.63
2019-04-29T12:14:39.450Z,5.63
2019-04-29T12:17:20.955Z,5.90
2019-04-29T12:19:55.080Z,6.17
2019-04-29T12:22:30.027Z,14.57
2019-04-29T12:24:56.021Z,6.83
2019-04-29T12:27:28.956Z,5.77
2019-04-29T12:29:59.433Z,4.80
2019-04-29T12:32:32.624Z,5.60
2019-04-29T12:35:06.776Z,6.57
2019-04-29T12:37:36.480Z,5.37
2019-04-29T12:40:14.506Z,5.43
2019-04-29T12:43:03.540Z,4.97
2019-04-29T12:45:49.776Z,5.50
2019-04-29T12:48:24.837Z,6.20
2019-04-29T12:50:55.177Z,6.00
2019-04-29T12:53:22.043Z,6.07
2019-04-29T12:55:53.937Z,5.30
2019-04-29T12:58:25.619Z,5.13
2019-04-29T13:01:00.955Z,4.83
2019-04-29T13:03:39.527Z,6.17
2019-04-29T13:06:09.446Z,4.70
2019-04-29T13:08:40.951Z,4.20
2019-04-29T13:11:10.667Z,6.20
2019-04-29T13:13:40.504Z,4.90
2019-04-29T13:16:21.798Z,5.13
2019-04-29T13:19:11.883Z,4.33
2019-04-29T13:21:39.803Z,4.40
2019-04-29T13:24:22.539Z,4.50
2019-04-29T13:26:42.991Z,5.30
2019-04-29T13:29:26.370Z,5.93
2019-04-29T13:31:43.706Z,6.67
2019-04-29T13:34:24.207Z,5.30
2019-04-29T13:37:05.473Z,5.80
2019-04-29T13:39:17.733Z,4.80
2019-04-29T13:41:57.326Z,4.57
2019-04-29T13:44:19.679Z,4.73
2019-04-29T13:47:07.200Z,4.47
2019-04-29T13:49:38.657Z,4.50
2019-04-29T13:52:08.750Z,6.03
2019-04-29T13:54:42.389Z,4.17
2019-04-29T13:57:15.688Z,2.70
2019-04-29T13:59:49.246Z,3.83
2019-04-29T14:02:22.700Z,2.43
2019-04-29T14:05:00.185Z,4.57
2019-04-29T14:07:29.040Z,2.67
2019-04-29T14:09:58.598Z,2.90
2019-04-29T14:15:00.303Z,2.70
2019-04-29T14:17:31.757Z,3.07
2019-04-29T14:20:01.700Z,2.20
2019-04-29T14:22:31.239Z,2.77
2019-04-29T14:25:01.522Z,1.80
2019-04-29T14:27:31.064Z,2.20
2019-04-29T14:30:02.895Z,3.50
2019-04-29T14:32:35.904Z,3.70
2019-04-29T14:35:07.251Z,2.60
2019-04-29T14:37:37.747Z,2.77
2019-04-29T14:40:10.822Z,2.40
2019-04-29T14:42:57.413Z,9.17
2019-04-29T14:45:38.913Z,6.83
2019-04-29T14:48:13.667Z,5.03
2019-04-29T14:50:44.931Z,3.93
2019-04-29T14:53:14.498Z,3.10
2019-04-29T14:55:44.540Z,2.53
2019-04-29T14:58:14.409Z,2.53
2019-04-29T15:00:50.014Z,2.50
2019-04-29T15:03:22.075Z,2.40
2019-04-29T15:05:51.671Z,2.70
2019-04-29T15:08:22.073Z,2.43
2019-04-29T15:10:53.611Z,3.23
2019-04-29T15:13:25.197Z,3.20
2019-04-29T15:16:14.113Z,3.20
2019-04-29T15:18:49.699Z,3.80
2019-04-29T15:21:31.513Z,3.33
2019-04-29T15:23:51.628Z,3.30
2019-04-29T15:26:21.179Z,3.60
2019-04-29T15:28:54.735Z,2.60
2019-04-29T15:31:25.371Z,4.13
2019-04-29T15:33:55.163Z,5.53
2019-04-29T15:36:24.720Z,3.40
2019-04-29T15:39:08.659Z,3.20
2019-04-29T15:41:31.147Z,4.17
2019-04-29T15:44:07.080Z,4.43
2019-04-29T15:46:31.381Z,3.73
2019-04-29T15:49:00.805Z,4.10
2019-04-29T15:51:30.373Z,20.57
2019-04-29T15:54:01.641Z,14.87
2019-04-29T15:56:33.664Z,4.37
2019-04-29T15:59:08.078Z,4.07
2019-04-29T16:01:34.251Z,3.40
2019-04-29T16:04:05.583Z,3.00
2019-04-29T16:06:42.560Z,3.37
2019-04-29T16:09:23.576Z,3.93
2019-04-29T16:12:13.972Z,2.67
2019-04-29T16:14:39.293Z,4.90
2019-04-29T16:17:08.857Z,4.13
2019-04-29T16:19:38.670Z,3.43
2019-04-29T16:22:13.062Z,3.57
2019-04-29T16:24:39.778Z,2.87
2019-04-29T16:27:10.530Z,3.17
2019-04-29T16:29:40.570Z,7.27
2019-04-29T16:32:11.841Z,10.43
2019-04-29T16:34:44.775Z,5.10
2019-04-29T16:37:19.050Z,3.93
2019-04-29T16:39:44.873Z,4.20
2019-04-29T16:42:18.928Z,4.47
2019-04-29T16:44:49.079Z,4.40
2019-04-29T16:47:19.276Z,5.03
2019-04-29T16:49:48.923Z,4.60
2019-04-29T16:52:18.665Z,5.70
2019-04-29T16:54:48.210Z,4.30
2019-04-29T16:57:17.874Z,4.73
2019-04-29T16:59:47.426Z,4.67
2019-04-29T17:02:19.627Z,5.20
2019-04-29T17:04:49.654Z,5.57
2019-04-29T17:07:19.281Z,5.97
2019-04-29T17:09:51.011Z,5.53
2019-04-29T17:12:20.651Z,23.33
2019-04-29T17:15:04.227Z,6.23
2019-04-29T17:17:28.921Z,5.07
2019-04-29T17:19:55.225Z,5.73
2019-04-29T17:22:27.180Z,5.80
2019-04-29T17:24:56.234Z,4.53
2019-04-29T17:27:35.103Z,5.40
2019-04-29T17:30:18.837Z,4.77
2019-04-29T17:32:50.831Z,5.23
2019-04-29T17:35:22.214Z,5.50
2019-04-29T17:37:52.520Z,6.53
2019-04-29T17:40:23.776Z,5.53
2019-04-29T17:42:55.020Z,6.47
2019-04-29T17:45:30.843Z,7.50
2019-04-29T17:47:59.224Z,6.87
2019-04-29T17:50:39.211Z,14.47
2019-04-29T17:53:09.482Z,9.27
2019-04-29T17:55:41.106Z,7.53
2019-04-29T17:58:19.774Z,6.67
2019-04-29T18:01:07.968Z,6.60
2019-04-29T18:03:51.354Z,7.07
2019-04-29T18:06:24.210Z,7.70
2019-04-29T18:09:12.115Z,7.20
2019-04-29T18:11:50.478Z,7.97
2019-04-29T18:14:14.966Z,11.17
2019-04-29T18:16:47.851Z,10.10
2019-04-29T18:19:17.771Z,8.37
2019-04-29T18:22:01.540Z,8.60
2019-04-29T18:24:35.928Z,8.10
2019-04-29T18:27:06.081Z,6.57
2019-04-29T18:29:41.448Z,7.97
2019-04-29T18:32:08.084Z,7.97
2019-04-29T18:34:37.770Z,7.57
2019-04-29T18:37:08.032Z,9.67
2019-04-29T18:39:38.023Z,8.97
2019-04-29T18:42:07.733Z,9.10
2019-04-29T18:44:42.085Z,9.50
2019-04-29T18:47:19.706Z,9.23
2019-04-29T18:49:39.963Z,9.47
2019-04-29T18:52:11.439Z,8.37
2019-04-29T18:54:41.126Z,11.27
2019-04-29T18:57:11.178Z,13.33
2019-04-29T18:59:42.073Z,13.03
2019-04-29T19:02:12.022Z,11.33
2019-04-29T19:04:53.380Z,11.20
2019-04-29T19:07:20.913Z,11.00
2019-04-29T19:09:50.548Z,11.60
2019-04-29T19:12:20.234Z,11.40
2019-04-29T19:14:50.206Z,12.03
2019-04-29T19:17:21.669Z,12.67
2019-04-29T19:19:51.457Z,12.07
2019-04-29T19:22:21.384Z,12.17
2019-04-29T19:24:50.940Z,12.77
2019-04-29T19:27:20.619Z,13.73
2019-04-29T19:29:50.175Z,14.20
2019-04-29T19:32:23.096Z,13.43
2019-04-29T19:34:54.936Z,12.57
2019-04-29T19:37:25.386Z,13.70
2019-04-29T19:39:57.115Z,20.57
2019-04-29T19:42:29.727Z,14.60
2019-04-29T19:44:57.753Z,14.67
2019-04-29T19:47:28.099Z,12.43
2019-04-29T19:49:57.883Z,13.47
2019-04-29T19:52:31.766Z,11.73
2019-04-29T19:55:01.705Z,14.23
2019-04-29T19:57:30.163Z,16.03
2019-04-29T20:00:00.469Z,13.10
2019-04-29T20:02:30.933Z,13.53
2019-04-29T20:05:05.225Z,13.63
2019-04-29T20:07:40.852Z,12.40
2019-04-29T20:10:10.077Z,13.53
2019-04-29T20:12:39.495Z,8.50
2019-04-29T20:15:10.862Z,8.70
2019-04-29T20:17:58.803Z,10.00
2019-04-29T20:20:35.062Z,7.73
2019-04-29T20:23:03.313Z,8.87
2019-04-29T20:25:38.072Z,8.07
2019-04-29T20:28:08.067Z,10.23
2019-04-29T20:30:35.882Z,8.73
2019-04-29T20:33:11.085Z,8.90
2019-04-29T20:35:40.394Z,11.57
2019-04-29T20:38:09.302Z,9.53
2019-04-29T20:40:43.029Z,11.93
2019-04-29T20:43:10.902Z,11.00
2019-04-29T20:45:40.545Z,11.00
2019-04-29T20:48:11.183Z,11.60
2019-04-29T20:50:46.108Z,12.10
2019-04-29T20:53:15.606Z,12.10
2019-04-29T20:55:46.209Z,11.37
2019-04-29T20:58:16.021Z,13.53
2019-04-29T21:00:45.986Z,11.07
2019-04-29T21:03:27.289Z,10.27
2019-04-29T21:05:50.233Z,12.83
2019-04-29T21:08:19.566Z,10.50
2019-04-29T21:10:51.010Z,12.90
2019-04-29T21:13:25.737Z,11.30
2019-04-29T21:16:06.084Z,12.90
2019-04-29T21:18:38.720Z,13.67
2019-04-29T21:21:08.388Z,13.73
2019-04-29T21:23:38.732Z,12.57
2019-04-29T21:26:09.725Z,12.97
2019-04-29T21:28:41.794Z,13.70
2019-04-29T21:31:11.658Z,14.07
2019-04-29T21:33:46.058Z,17.63
2019-04-29T21:36:18.316Z,16.57
2019-04-29T21:39:06.143Z,16.63
2019-04-29T21:41:43.487Z,14.87
2019-04-29T21:44:13.057Z,17.40
2019-04-29T21:46:42.739Z,16.60
2019-04-29T21:49:12.743Z,15.63
2019-04-29T21:51:48.440Z,17.83
2019-04-29T21:54:15.704Z,14.83
2019-04-29T21:56:47.998Z,15.17
2019-04-29T21:59:16.913Z,14.03
2019-04-29T22:01:47.132Z,15.10
2019-04-29T22:04:16.785Z,14.53
2019-04-29T22:06:47.481Z,16.67
2019-04-29T22:09:19.598Z,17.53
2019-04-29T22:11:49.652Z,16.43
2019-04-29T22:14:26.742Z,16.23
2019-04-29T22:16:57.107Z,16.20
2019-04-29T22:19:28.238Z,17.50
2019-04-29T22:22:01.523Z,16.47
2019-04-29T22:24:29.229Z,16.13
2019-04-29T22:27:03.772Z,18.33
2019-04-29T22:29:31.975Z,18.03
2019-04-29T22:32:07.558Z,20.17
2019-04-29T22:34:36.629Z,18.70
2019-04-29T22:37:11.848Z,18.77
2019-04-29T22:39:41.434Z,19.90
2019-04-29T22:42:12.740Z,18.57
2019-04-29T22:44:42.311Z,19.80
2019-04-29T22:47:12.407Z,19.90
2019-04-29T22:49:42.036Z,18.37
2019-04-29T22:52:11.605Z,19.97
2019-04-29T22:54:41.275Z,20.73
2019-04-29T22:57:11.187Z,18.50
2019-04-29T22:59:40.855Z,17.77
2019-04-29T23:02:13.051Z,18.03
2019-04-29T23:04:49.083Z,19.43
2019-04-29T23:07:17.698Z,19.70
2019-04-29T23:09:46.383Z,20.03
2019-04-29T23:12:18.636Z,18.70
2019-04-29T23:14:48.525Z,18.87
2019-04-29T23:17:18.149Z,19.70
2019-04-29T23:19:50.642Z,18.50
2019-04-29T23:22:37.708Z,21.03
2019-04-29T23:25:13.467Z,18.93
2019-04-29T23:27:43.136Z,19.67
2019-04-29T23:30:18.164Z,19.40
2019-04-29T23:32:50.896Z,22.43
2019-04-29T23:35:20.564Z,19.47
2019-04-29T23:37:50.252Z,19.97
2019-04-29T23:40:19.820Z,21.50
2019-04-29T23:42:49.820Z,23.37
2019-04-29T23:45:20.957Z,23.83
2019-04-29T23:47:50.759Z,24.27
2019-04-29T23:50:20.448Z,23.77
2019-04-29T23:52:51.757Z,24.73
2019-04-29T23:55:25.645Z,22.97
2019-04-29T23:58:02.852Z,27.80
